Josh Pulisic

Recruteur - LA Galaxy
10 Sept 2028
Dimanche
Processus

Personnalité

Adaptabilité (19) Ambition (14) Controverse (14) Loyauté (8) Pression (9) Professionnalisme (19) Sportivité (19) Tempérament (4)

Profil

Style d'entraînement Démocratique
Diplôme Continental Pro
Détermination 13
Gestion des joueurs 14
Motivation 11
Discipline 12
Satisfaction professionnelle
91%
Fatigue
0%
Rôle Recruteur
Salaire 59.2K p/s
Contrat 14.03.2030

Performance

Comportement Bon
Efficacité de l'entraînement
49%
Développement des joueurs
35%
Prévention des blessures
70%
Mise en place tactique
60%

Événements récents

A évalué un joueur maintenant
A évalué un joueur maintenant
A évalué un joueur maintenant
A évalué un joueur maintenant
A évalué un joueur maintenant
A observé un match maintenant
A observé un match maintenant
A évalué un joueur maintenant

Suivi en cours

313
Joueur Club Statut Capacité Confiance Observé Dernière observation Dernier vote
Tyler Fletcher Rotherham United Actif 116 / 116 40% 2 09.09.2028 -
Harrison Armstrong Ipswich Town Actif 134 / 146 40% 2 09.09.2028 -
Alan Lescano Argentinos Juniors Actif 138 / 137 40% 1 09.09.2028 -
Elias Achouri San Diego Football Club Actif 130 / 135 40% 1 09.09.2028 -
Nəriman Axundzadə Columbus Crew Actif 133 / 128 40% 1 09.09.2028 -
André Franco Chicago Fire Actif 133 / 130 40% 1 09.09.2028 -
Marco Pašalić Orlando City Actif 135 / 126 40% 1 09.09.2028 -
Lucas Camejo River Plate Actif 83 / 94 40% 1 09.09.2028 -
Tobías Ramírez River Plate Actif 131 / 126 40% 6 08.09.2028 -
Lyle Foster Rosenborg Actif 131 / 144 40% 2 08.09.2028 -
Alan Velasco Fortaleza Actif 132 / 132 40% 1 08.09.2028 -
Santiago Rodríguez Columbus Crew Actif 128 / 122 40% 1 08.09.2028 -
Rory Finneran Newcastle United Actif 103 / 109 40% 1 08.09.2028 -
Duncan McGuire Houston Dynamo Actif 123 / 127 40% 2 07.09.2028 -
Alejo Cruz Juventud Actif 130 / 132 40% 2 07.09.2028 -
Facundo Mura Inter Miami CF Actif 122 / 121 40% 3 07.09.2028 -
Ayden Heaven Portsmouth Actif 146 / 151 40% 4 07.09.2028 -
Luis Otávio Orlando City Actif 109 / 129 40% 4 07.09.2028 -
Lautaro Giaccone Argentinos Juniors Actif 132 / 131 40% 2 07.09.2028 -
Matko Miljevic Racing Club Actif 135 / 135 40% 2 07.09.2028 -
Erick Pulga Bahia Actif 138 / 135 40% 1 07.09.2028 -
Aidan Borland Espanyol Actif 116 / 119 40% 1 07.09.2028 -
David Da Costa Portland Timbers Rapport prêt 132 / 140 69% 2 06.09.2028 Approuver
Juan Cruz de los Santos Nacional Actif 136 / 130 40% 3 06.09.2028 -
Veljko Milosavljević Bournemouth Actif 152 / 148 40% 2 06.09.2028 -
Ayyoub Bouaddi Stoke City Actif 150 / 162 40% 2 06.09.2028 -
Emiliano Gómez Boston River Actif 126 / 128 40% 1 06.09.2028 -
Barış Alper Yılmaz Cruzeiro Actif 156 / 152 40% 1 06.09.2028 -
Gabriel Pirani San Diego Football Club Actif 135 / 144 40% 1 06.09.2028 -
Rodrigo Atencio São Paulo Actif 126 / 128 40% 1 05.09.2028 -
Jim Thwaites Manchester United Actif 121 / 135 40% 1 05.09.2028 -
Aytor Herrera Mineros de Guayana Actif 86 / 99 40% 1 05.09.2028 -
Daniel Barrea Godoy Cruz Actif 130 / 125 40% 6 04.09.2028 -
Shapi Suleymanov Sporting Kansas City Actif 129 / 112 40% 1 04.09.2028 -
Franco Nicola Liverpool Montevideo Actif 128 / 113 40% 1 04.09.2028 -
Juan Bisanz Huracán Actif 128 / 118 40% 1 04.09.2028 -
Gonzalo Plata Nacional Actif 144 / 131 40% 1 04.09.2028 -
Felipe Varela Trujillanos Actif 90 / 101 40% 1 04.09.2028 -
Tiago Gordillo San Miguel Actif 91 / 105 40% 1 04.09.2028 -
Aboubacar Meïté Afrique Foot Elite Actif 90 / 81 40% 1 04.09.2028 -
Luca Langoni Columbus Crew Actif 142 / 130 40% 6 13.08.2028 -
Musa Barrow ES Setif Actif 138 / 130 40% 1 13.08.2028 -
John Yeboah Venezia Actif 132 / 135 40% 1 13.08.2028 -
Hélio Varela Maccabi Tel Aviv Actif 143 / 124 40% 1 11.08.2028 -
Nicolò Cambiaghi Bologna Actif 152 / 143 40% 1 11.08.2028 -
Borja Sainz Udinese Actif 158 / 154 40% 1 11.08.2028 -
Camillo Tavernelli Arezzo Actif 125 / 127 40% 1 10.08.2028 -
Lewis Ferguson Bologna Actif 149 / 154 40% 1 10.08.2028 -
Samuel Edozie Southampton Actif 136 / 136 40% 4 09.08.2028 -
Largie Ramazani Leeds United Actif 152 / 140 40% 2 09.08.2028 -
Vitaly Janelt Derby County Actif 151 / 157 40% 2 09.08.2028 -
Juanlu Bournemouth Actif 153 / 150 40% 3 08.08.2028 -
Tyreece Campbell Charlton Athletic Actif 132 / 135 40% 7 08.08.2028 -
Daniel Banjaqui Benfica Actif 131 / 140 40% 4 08.08.2028 -
Augusto Bando Ascoli Actif 114 / 120 40% 3 08.08.2028 -
Celías Ingenthron Platense Actif 117 / 121 40% 1 08.08.2028 -
Marcus Edwards Burnley Actif 145 / 142 40% 3 07.08.2028 -
Leo Castledine Middlesbrough Actif 144 / 144 40% 3 07.08.2028 -
Kiani Inge Groningen Actif 119 / 116 40% 5 07.08.2028 -
Martim Cunha Porto Actif 114 / 115 40% 3 01.08.2028 -
Sebastian Rodriguez Houston Dynamo Actif 115 / 136 40% 1 01.08.2028 -
Giovanni Leoni Lincoln City Actif 150 / 143 40% 4 26.07.2028 -
Lamine Bèye Portimonense Négociation 121 / 119 40% 3 26.07.2028 -
Jan Bürger Northampton Town Actif 123 / 126 40% 3 25.07.2028 -
Rodrigo Gomes Wolverhampton Actif 154 / 149 40% 6 24.07.2028 -
Isaiah Jones Luton Town Actif 136 / 136 40% 5 24.07.2028 -
Stanley Mills Crewe Alexandra Actif 136 / 137 40% 1 24.07.2028 -
Bence Szakos Aris Actif 105 / 95 40% 2 20.07.2028 -
Lautaro Dufur Juventud Actif 105 / 106 40% 1 20.07.2028 -
Gideon Manaseh Ikorodu City Actif 104 / 112 40% 3 18.07.2028 -
Jayden Bogle Leeds United Actif 151 / 151 40% 3 17.07.2028 -
André Wolverhampton Actif 152 / 151 40% 2 17.07.2028 -
Malik Mothersille Stockport County Actif 127 / 125 40% 1 17.07.2028 -
Kamaldeen Atiemo Wa All Stars Actif 112 / 95 40% 4 16.07.2028 -
Federico Matarán Giana Erminio Actif 103 / 118 40% 2 16.07.2028 -
Bernardo Lima Porto Actif 118 / 122 40% 1 16.07.2028 -
Josh Nichols Oldham Athletic Actif 121 / 120 40% 4 15.07.2028 -
Josh Stokes Bristol City Actif 120 / 124 40% 1 13.07.2028 -
Jake Evans Crewe Alexandra Négociation 121 / 122 40% 1 13.07.2028 -
Mees Rijks Bristol Rovers Actif 122 / 126 40% 1 13.07.2028 -
Andrey Ivlev Nizhniy Novgorod Actif 113 / 121 40% 4 12.07.2028 -
Ryan Kavuma-McQueen Accrington Stanley Actif 121 / 136 40% 2 12.07.2028 -
Charlie Kelman Barnsley Actif 122 / 127 40% 1 12.07.2028 -
Yousef Salech Cardiff City Actif 132 / 137 40% 3 11.07.2028 -
Lorent Tolaj Plymouth Argyle Actif 125 / 126 40% 1 11.07.2028 -
Abubakar Adams Aduana Stars Actif 83 / 104 40% 4 10.07.2028 -
Joel Ezra Enyimba Actif 95 / 101 40% 3 10.07.2028 -
Miguel Figueiredo Benfica Actif 117 / 121 40% 1 10.07.2028 -
Andri Guðjohnsen Blackburn Rovers Actif 134 / 132 40% 1 10.07.2028 -
Puso Dithejane Chicago Fire Actif 120 / 126 72% 1 09.07.2028 Approuver
Rayan Kolli Queens Park Rangers Actif 119 / 126 40% 1 09.07.2028 -
Aidomo Emakhu Oxford United Actif 133 / 130 40% 1 09.07.2028 -
Yassir Zabiri Stade Rennais Actif 140 / 148 40% 1 09.07.2028 -
Pablo Felipe West Ham United Actif 142 / 151 40% 4 08.07.2028 -
Rodrigo Muniz Fulham Actif 146 / 139 40% 6 08.07.2028 -
William Osula Wrexham Actif 137 / 138 40% 4 08.07.2028 -
Abdoul Ouattara Port Vale Actif 135 / 135 40% 2 08.07.2028 -
Matěj Jurásek Doncaster Rovers Actif 130 / 128 40% 2 08.07.2028 -
Kevin Schade Chelsea Actif 161 / 155 40% 1 08.07.2028 -
Callum O'Hare Sheffield United Actif 135 / 145 40% 5 07.07.2028 -
Cheveyo Tsawa Club Brugge Actif 125 / 132 40% 2 07.07.2028 -
Jayden Danns Bradford City Actif 136 / 146 40% 2 07.07.2028 -
Marcus Tavernier Bournemouth Actif 150 / 146 40% 1 07.07.2028 -
Neco Williams Wrexham Actif 156 / 158 40% 1 06.07.2028 -
Carlos Alcaraz Stoke City Actif 155 / 151 40% 1 05.07.2028 -
Kasey McAteer Barnsley Actif 140 / 138 40% 1 05.07.2028 -
Yasin Ayari Middlesbrough Actif 156 / 154 40% 1 05.07.2028 -
Mehdi Noorafkan Padideh Actif 88 / 110 40% 1 05.07.2028 -
Riquelme Thompson-Jones Accrington Stanley Actif 117 / 111 40% 1 05.07.2028 -
Jason Knight Bristol City Actif 138 / 144 40% 4 04.07.2028 -
Max Bird Birmingham Actif 141 / 148 40% 2 04.07.2028 -
Jaidon Anthony Derby County Actif 150 / 143 40% 2 04.07.2028 -
Jeremy Sarmiento Middlesbrough Actif 134 / 137 40% 1 04.07.2028 -
Trey Nyoni Rotherham United Actif 144 / 145 40% 1 04.07.2028 -
Andrea Cogoni Cosenza Actif 109 / 112 40% 3 26.06.2028 -
Daniel Idoko Ikorodu City Actif 98 / 112 40% 1 22.06.2028 -
David Damboama El-Kanemi Warriors Actif 82 / 76 40% 4 21.06.2028 -
Hosea Michael Remo Stars Actif 80 / 107 40% 1 19.06.2028 -
Kwesi Sorotu Badori Berekum Chelsea Actif 104 / 116 40% 2 18.06.2028 -
Christos Mouzakitis Hull City Actif 133 / 136 40% 2 17.06.2028 -
Musa Danjuma Umraniyespor Actif 97 / 120 40% 1 17.06.2028 -
Thato Sibiya Orlando Pirates Actif 115 / 120 40% 2 15.06.2028 -
Honest Ahanor Atalanta Actif 137 / 138 40% 6 10.06.2028 -
Amine Boukamir Charleroi Actif 108 / 115 40% 1 31.05.2028 -
Thijs Kraaijeveld USM Alger Actif 119 / 141 40% 1 31.05.2028 -
Tobiáš Pališčák Zlin Actif 104 / 98 40% 1 31.05.2028 -
Luka Vušković Tottenham Actif 148 / 154 40% 1 27.05.2028 -
Olivier Mambwa Young Boys Actif 113 / 125 40% 1 23.05.2028 -
Jorthy Mokio ADO Den Haag Actif 132 / 145 40% 4 20.05.2028 -
Ezra Mayers West Ham United Actif 125 / 136 40% 1 18.05.2028 -
Dmytro Strilchuk Podillia Actif 90 / 82 40% 1 17.05.2028 -
Jenson Jones Walsall Actif 103 / 98 40% 1 17.05.2028 -
Claudio Martey Pianese Actif 86 / 93 40% 1 18.04.2028 -
Anzor Mekvabishvili Chicago Fire Actif 113 / 129 72% 1 03.04.2028 Approuver
Thierry Small Preston Actif 133 / 122 40% 2 21.03.2028 -
Sander Berge Derby County Actif 153 / 148 40% 1 21.03.2028 -
Ben Gannon Doak Charlton Athletic Actif 156 / 150 40% 2 06.03.2028 -
Nuno Santos SuperSport United Actif 146 / 121 40% 1 06.03.2028 -
Aune Heggebø West Bromwich Albion Actif 138 / 124 40% 1 28.02.2028 -
Harry Leonard Rukh Actif 124 / 130 40% 1 28.02.2028 -
Dwight McNeil Crystal Palace Actif 146 / 149 40% 2 17.02.2028 -
Patrick Agyemang Derby County Actif 126 / 121 40% 5 16.02.2028 -
Yoane Wissa Newcastle United Actif 144 / 138 40% 1 16.02.2028 -
Nathan Collins Brentford Actif 154 / 154 40% 3 15.02.2028 -
Sam Greenwood Bristol City Actif 126 / 124 40% 2 15.02.2028 -
Exequiel Palacios Lazio Actif 167 / 158 40% 2 15.02.2028 -
Bafodé Diakité Plymouth Argyle Actif 154 / 140 40% 1 15.02.2028 -
Talles Magno New York City Actif 131 / 132 40% 6 13.02.2028 -
Jarrod Bowen West Ham United Actif 165 / 155 40% 2 13.02.2028 -
Hwang Hee-Chan Wolverhampton Actif 140 / 132 40% 5 12.02.2028 -
Patson Daka Leicester City Actif 126 / 124 40% 4 12.02.2028 -
Alfie Doughty Millwall Actif 130 / 128 40% 1 12.02.2028 -
Caspar Jander Southampton Actif 142 / 145 40% 1 12.02.2028 -
Eddie Nketiah Crystal Palace Actif 147 / 144 40% 6 11.02.2028 -
Tashreeq Matthews Bloemfontein Celtic Actif 119 / 139 40% 2 11.02.2028 -
Mohamed-Ali Cho Hull City Actif 143 / 142 40% 6 10.02.2028 -
Victor Torp Bristol Rovers Actif 139 / 127 40% 2 09.02.2028 -
Jesus Ferreira Seattle Sounders Actif 141 / 137 40% 8 08.02.2028 -
Germán Berterame Inter Miami CF Actif 139 / 133 40% 7 06.02.2028 -
Dejan Joveljić Seattle Sounders Actif 139 / 138 40% 4 06.02.2028 -
Cheikh Sabaly Vancouver Whitecaps Actif 120 / 128 40% 9 05.02.2028 -
Bénie Traoré New York City Actif 137 / 120 40% 8 05.02.2028 -
Leonardo Campana New England Revolution Actif 120 / 116 40% 9 03.02.2028 -
Manuel Ugarte Leicester City Actif 146 / 154 40% 1 03.02.2028 -
Kévin Denkey FC Cincinnati Actif 128 / 138 40% 8 29.01.2028 -
Antoni Milambo Brentford Actif 145 / 150 40% 3 29.01.2028 -
Óscar Mingueza Crystal Palace Actif 161 / 150 40% 2 29.01.2028 -
Oli McBurnie Hull City Actif 135 / 143 40% 1 29.01.2028 -
Aaron Collins Milton Keynes Dons Actif 120 / 119 40% 2 25.01.2028 -
Liel Abada Inter Miami CF Actif 131 / 148 40% 14 24.01.2028 -
Richard Koné Queens Park Rangers Actif 128 / 128 40% 1 24.01.2028 -
Jack McGlynn Stoke City Actif 136 / 142 40% 1 22.01.2028 -
Taty Castellanos West Ham United Actif 153 / 151 40% 3 18.01.2028 -
James Garner Everton Actif 159 / 158 40% 4 17.01.2028 -
Dennis Cirkin Queens Park Rangers Actif 141 / 130 40% 4 17.01.2028 -
Taiwo Awoniyi Middlesbrough Actif 148 / 150 40% 1 17.01.2028 -
Finn Azaz Southampton Actif 139 / 139 40% 7 16.01.2028 -
Matt O'Riley Brighton Actif 152 / 149 40% 4 15.01.2028 -
Telasco Segovia Inter Miami CF Actif 134 / 128 40% 1 15.01.2028 -
Kristoffer Lund Birmingham Actif 136 / 141 40% 1 15.01.2028 -
Alex Scott Bournemouth Actif 156 / 149 40% 1 15.01.2028 -
Callum Brittain Middlesbrough Actif 134 / 134 40% 4 12.01.2028 -
Mats Wieffer Brighton Actif 157 / 158 40% 1 12.01.2028 -
Maximiliano Gómez Nacional Actif 132 / 131 40% 4 11.01.2028 -
Shea Charles Southampton Actif 148 / 147 40% 1 11.01.2028 -
Nicolò Savona Nottingham Forest Actif 155 / 151 40% 1 09.01.2028 -
Hannibal Burnley Actif 132 / 147 40% 1 08.01.2028 -
Odel Offiah Shrewsbury Town Actif 131 / 118 40% 1 07.01.2028 -
Rico Henry River Plate Actif 149 / 134 40% 1 07.01.2028 -
Keane Lewis-Potter Brentford Actif 155 / 152 40% 1 07.01.2028 -
Brandon Thomas-Asante Blackpool Actif 132 / 117 40% 1 05.01.2028 -
Malick Thiaw Ipswich Town Actif 159 / 163 40% 1 04.01.2028 -
Matteo Ruggeri Middlesbrough Actif 151 / 155 40% 1 04.01.2028 -
Wessam Abou Ali Columbus Crew Actif 142 / 119 40% 10 25.12.2027 -
Jonás Acevedo Instituto Actif 132 / 132 40% 2 24.12.2027 -
Tomás Molina Argentinos Juniors Actif 129 / 122 40% 4 24.12.2027 -
Pep Biel Charlotte Football Club Actif 128 / 127 40% 7 22.12.2027 -
Myrto Uzuni Austin FC Actif 125 / 124 40% 7 19.12.2027 -
Louis Munteanu Charlotte Football Club Actif 126 / 134 40% 3 18.12.2027 -
Alexey Miranchuk Atlanta United FC Actif 136 / 138 40% 3 18.12.2027 -
Timo Werner San Jose Earthquakes Actif 122 / 118 40% 5 14.12.2027 -
Tai Baribo Austin FC Actif 120 / 129 40% 6 11.12.2027 -
Alexis Cuello San Lorenzo Actif 130 / 124 40% 5 03.12.2027 -
Tomás Chancalay New England Revolution Perdu 127 / 135 40% 6 26.11.2027 -
Jay Stansfield Birmingham Actif 139 / 125 40% 1 18.11.2027 -
Vegard Erlien Tromso Actif 118 / 125 40% 1 17.11.2027 -
Ignacio Russo Tigre Actif 130 / 129 40% 5 07.11.2027 -
Enzo Copetti Rosario Central Actif 122 / 131 40% 3 04.11.2027 -
Georginio Rutter Brighton Actif 156 / 159 40% 2 27.10.2027 -
Matías Arezo Penarol Actif 128 / 123 40% 1 23.10.2027 -
Jhonatan Candia Barracas Central Actif 126 / 112 40% 3 22.10.2027 -
Brandon Vázquez Austin FC Actif 115 / 115 40% 5 06.10.2027 -
Dániel Gazdag New England Revolution Actif 121 / 135 40% 2 26.09.2027 -
Agustín Anello Philadelphia Union Actif 129 / 123 40% 7 25.09.2027 -
Ignacio Ramírez Newell's Old Boys Actif 127 / 130 40% 2 25.09.2027 -
Johannes Eggestein Orlando City Actif 118 / 113 40% 1 19.09.2027 -
Bruno Barticciotto Talleres Actif 121 / 127 40% 1 12.09.2027 -
Kelvin Yeboah Minnesota United FC Actif 123 / 126 40% 1 29.08.2027 -
Jordan Morris Seattle Sounders Actif 122 / 132 40% 1 25.08.2027 -
Gianluca Scamacca Atalanta Actif 154 / 155 40% 1 19.08.2027 -
Amin Sarr Hellas Verona Actif 138 / 130 40% 1 18.08.2027 -
Mateo Pellegrino Fiorentina Actif 142 / 133 40% 1 18.08.2027 -
Walid Cheddira Avellino Actif 124 / 131 40% 1 18.08.2027 -
Keinan Davis Udinese Actif 134 / 134 40% 1 16.08.2027 -
David Romero Parma Actif 132 / 133 40% 1 14.08.2027 -
Nicolò Zaniolo Udinese Actif 150 / 156 40% 2 13.08.2027 -
Lorenzo Colombo Genoa Actif 145 / 143 40% 2 13.08.2027 -
Stiven Shpendi Empoli Actif 120 / 127 40% 1 13.08.2027 -
Sindre Walle Egeli Udinese Actif 134 / 148 40% 2 10.08.2027 -
Che Adams Torino Actif 148 / 148 40% 1 10.08.2027 -
Jørgen Strand Larsen Brighton Actif 154 / 140 40% 1 07.08.2027 -
Wilson Isidor Sunderland Actif 146 / 139 40% 1 06.08.2027 -
Marezi Portsmouth Actif 118 / 135 40% 1 04.08.2027 -
Oliver Skipp Leicester City Actif 137 / 141 40% 1 19.07.2027 -
Will Fish Cardiff City Actif 131 / 120 40% 1 19.07.2027 -
Stanislav Agkatsev Brentford Actif 132 / 133 78% 1 08.07.2027 Approuver
Luiz Henrique AS Roma Actif 142 / 143 68% 1 08.07.2027 Approuver
Nordi Mukiele Sunderland Actif 151 / 136 40% 3 06.07.2027 -
Ali Ahmed Norwich City Actif 128 / 122 40% 1 06.07.2027 -
Oladapo Afolayan Blackburn Rovers Actif 125 / 127 40% 9 05.07.2027 -
Yehor Yarmoliuk Brentford Actif 155 / 142 40% 5 05.07.2027 -
Nathan Broadhead Wrexham Actif 129 / 131 40% 3 03.07.2027 -
Bobby Clark Derby County Actif 119 / 129 40% 1 03.07.2027 -
Xaver Schlager Nottingham Forest Actif 149 / 144 40% 1 02.07.2027 -
Joe Gelhardt Hull City Actif 137 / 129 40% 4 01.07.2027 -
Jack Rudoni Coventry City Actif 137 / 127 40% 3 01.07.2027 -
Chemsdine Talbi Sunderland Actif 145 / 149 40% 1 01.07.2027 -
Brooke Norton-Cuffy Hull City Actif 140 / 151 40% 2 29.06.2027 -
Bosun Lawal Stoke City Actif 133 / 131 40% 1 29.06.2027 -
Conor Chaplin Leicester City Actif 129 / 121 40% 2 26.06.2027 -
Harry Clarke Preston Actif 125 / 131 40% 1 26.06.2027 -
Mohamed Belloumi Hull City Actif 136 / 141 40% 1 26.06.2027 -
Fábio Carvalho Brentford Actif 146 / 131 40% 4 23.06.2027 -
Andre Brooks Sheffield United Actif 136 / 139 40% 3 22.06.2027 -
Derensili Sanches Fernandes Huddersfield Town Actif 134 / 114 40% 4 21.06.2027 -
Quinten Timber Crystal Palace Actif 157 / 147 40% 4 17.06.2027 -
Welington Southampton Actif 128 / 141 40% 1 14.06.2027 -
Pedro Porro Tottenham Actif 148 / 159 40% 3 12.06.2027 -
Ryoya Morishita Blackburn Rovers Actif 129 / 130 40% 2 11.06.2027 -
Kwadwo Baah Watford Actif 132 / 128 40% 2 11.06.2027 -
Toby Collyer West Bromwich Albion Actif 130 / 127 40% 1 09.06.2027 -
Tatsuhiro Sakamoto Coventry City Actif 135 / 120 40% 3 06.06.2027 -
Florentino Luís Ipswich Town Actif 141 / 144 40% 2 05.06.2027 -
Ilyas Ansah Hull City Actif 137 / 127 40% 3 03.06.2027 -
Harry Wilson Leeds United Actif 140 / 134 40% 4 01.06.2027 -
Tyrese Campbell Sheffield United Actif 125 / 122 40% 2 29.05.2027 -
Ilias Chair Queens Park Rangers Actif 129 / 135 40% 1 29.05.2027 -
Sorba Thomas Stoke City Actif 136 / 122 40% 5 25.05.2027 -
Zian Flemming Ipswich Town Actif 138 / 127 40% 5 21.05.2027 -
Amine Adli Bournemouth Actif 138 / 151 40% 1 16.05.2027 -
Jacques Ekomié Wrexham Actif 129 / 122 40% 1 15.05.2027 -
Tomáš Rigo Stoke City Actif 124 / 135 40% 2 12.05.2027 -
Matthew Targett Hull City Actif 127 / 140 40% 2 10.05.2027 -
Manor Solomon West Ham United Actif 146 / 135 40% 4 07.05.2027 -
Malick Fofana Sunderland Actif 149 / 156 40% 2 30.04.2027 -
Marcelo Allende Mamelodi Sundowns Actif 127 / 145 40% 5 26.04.2027 -
Enzo Le Fée Sunderland Actif 142 / 142 40% 2 24.04.2027 -
Fer López Wolverhampton Actif 131 / 148 40% 1 24.04.2027 -
Ryan Sessegnon Fulham Actif 150 / 155 40% 1 22.04.2027 -
Scott Twine Bristol City Actif 125 / 112 40% 1 13.04.2027 -
Azor Matusiwa Ipswich Town Actif 137 / 144 40% 1 11.04.2027 -
Habib Diarra Sunderland Actif 145 / 135 40% 1 08.04.2027 -
Kenny Tete Fulham Actif 144 / 136 40% 2 07.04.2027 -
Bongani Zungu Ajax Cape Town Actif 124 / 111 40% 3 01.04.2027 -
Ramiro FC Dallas Actif 116 / 121 69% 1 29.03.2027 Approuver
Tomáš Souček West Ham United Actif 135 / 138 40% 1 11.02.2027 -
Max Johnston Derby County Actif 135 / 138 40% 1 07.02.2027 -
Alex Bangura Middlesbrough Actif 121 / 130 40% 1 01.02.2027 -
Óscar Al-Diriyah Actif 133 / 119 40% 2 30.01.2027 -
André-Franck Zambo Anguissa Napoli Actif 157 / 166 40% 3 28.01.2027 -
Will Hughes Bloemfontein Celtic Actif 124 / 133 40% 1 28.01.2027 -
Galeno Al-Ahli Actif 150 / 152 40% 2 26.01.2027 -
Alexandr Chernikov Krasnodar Actif 123 / 135 40% 1 15.01.2027 -
Majid Jahanbakhsh Rah Ahan Actif 128 / 118 40% 1 13.01.2027 -
Gedson Fernandes Spartak Moscow Actif 129 / 137 40% 1 12.01.2027 -
Gustavo Mantuan Zenit Actif 125 / 145 40% 2 04.01.2027 -
Ferland Mendy Real Madrid Actif 147 / 132 40% 1 04.01.2027 -
Jordan Lotomba Bloemfontein Celtic Actif 115 / 122 40% 3 03.01.2027 -
Khuliso Mudau Mamelodi Sundowns Actif 131 / 129 40% 1 03.01.2027 -
Vladyslav Dubinchak Dynamo Kyiv Actif 135 / 137 40% 2 26.12.2026 -
Diego Gómez Brighton Actif 145 / 150 40% 3 25.12.2026 -
Oliver Arblaster Sheffield United Actif 128 / 129 40% 1 22.12.2026 -
Yacine Adli Al-Shabab Actif 134 / 127 40% 1 29.11.2026 -
Manu Morlanes Mallorca Actif 137 / 132 40% 1 16.11.2026 -
Fredrik Bjørkan Bodo/Glimt Actif 131 / 122 40% 1 11.11.2026 -
David Brekalo Orlando City Actif 131 / 131 40% 1 11.11.2026 -
Álex Centelles Levski Actif 113 / 109 40% 1 07.11.2026 -
Femi Seriki Sheffield United Actif 126 / 132 40% 1 02.11.2026 -
Matevž Vidovšek Olimpija Ljubljana Actif 122 / 113 40% 2 20.09.2026 -
Oscar Hedvall Valerenga Actif 128 / 107 40% 1 19.09.2026 -
Angus Gunn San Jose Earthquakes Actif 120 / 109 40% 1 07.09.2026 -
Zack Steffen Colorado Rapids Actif 130 / 125 40% 1 07.09.2026 -
Gabriel Martinelli Arsenal Actif 165 / 152 40% 1 01.08.2026 -